sensor_id;sensor_type;location;lat;lon;timestamp;pressure;altitude;pressure_sealevel;temperature;humidity
59859;BME280;45734;53.648;9.566;2023-05-29T00:01:58;92549.06;;;-145.06;100.00
59859;BME280;45734;53.648;9.566;2023-05-29T00:06:58;92538.84;;;-145.06;100.00
59859;BME280;45734;53.648;9.566;2023-05-29T00:11:58;92540.91;;;-145.06;100.00
59859;BME280;45734;53.648;9.566;2023-05-29T00:16:58;92540.91;;;-145.06;100.00
59859;BME280;45734;53.648;9.566;2023-05-29T00:21:59;92540.91;;;-145.06;100.00
59859;BME280;45734;53.648;9.566;2023-05-29T00:26:59;92534.75;;;-145.06;100.00
59859;BME280;45734;53.648;9.566;2023-05-29T00:32:01;92549.06;;;-145.06;100.00
59859;BME280;45734;53.648;9.566;2023-05-29T00:37:02;92540.91;;;-145.06;100.00
59859;BME280;45734;53.648;9.566;2023-05-29T00:42:03;92553.16;;;-145.06;100.00
59859;BME280;45734;53.648;9.566;2023-05-29T00:47:03;92508.19;;;-145.06;100.00
59859;BME280;45734;53.648;9.566;2023-05-29T00:57:06;92534.75;;;-145.06;100.00
59859;BME280;45734;53.648;9.566;2023-05-29T01:02:07;92534.75;;;-145.06;100.00
59859;BME280;45734;53.648;9.566;2023-05-29T01:07:07;92532.72;;;-145.06;100.00
59859;BME280;45734;53.648;9.566;2023-05-29T01:12:42;92549.06;;;-145.06;100.00
59859;BME280;45734;53.648;9.566;2023-05-29T01:28:42;92544.97;;;-145.06;100.00
59859;BME280;45734;53.648;9.566;2023-05-29T01:34:01;92581.78;;;-145.06;100.00
59859;BME280;45734;53.648;9.566;2023-05-29T01:39:02;92622.69;;;-145.06;100.00
59859;BME280;45734;53.648;9.566;2023-05-29T01:44:05;92589.97;;;-145.06;100.00
59859;BME280;45734;53.648;9.566;2023-05-29T01:49:09;92573.63;;;-145.06;100.00
59859;BME280;45734;53.648;9.566;2023-05-29T01:54:11;92624.72;;;-145.06;100.00
59859;BME280;45734;53.648;9.566;2023-05-29T01:59:12;92606.34;;;-145.06;100.00
59859;BME280;45734;53.648;9.566;2023-05-29T02:04:13;92651.31;;;-145.06;100.00
59859;BME280;45734;53.648;9.566;2023-05-29T02:09:13;92606.34;;;-145.06;100.00
59859;BME280;45734;53.648;9.566;2023-05-29T02:14:13;92602.25;;;-145.06;100.00
59859;BME280;45734;53.648;9.566;2023-05-29T02:19:14;92606.34;;;-145.06;100.00
59859;BME280;45734;53.648;9.566;2023-05-29T02:24:14;92606.34;;;-145.06;100.00
59859;BME280;45734;53.648;9.566;2023-05-29T02:29:14;92641.09;;;-145.06;100.00
59859;BME280;45734;53.648;9.566;2023-05-29T02:34:15;92649.28;;;-145.06;100.00
59859;BME280;45734;53.648;9.566;2023-05-29T02:39:15;92581.78;;;-145.06;100.00
59859;BME280;45734;53.648;9.566;2023-05-29T02:44:15;92594.06;;;-145.06;100.00
59859;BME280;45734;53.648;9.566;2023-05-29T02:49:16;92598.16;;;-145.06;100.00
59859;BME280;45734;53.648;9.566;2023-05-29T02:54:16;92561.34;;;-145.06;100.00
59859;BME280;45734;53.648;9.566;2023-05-29T02:59:16;92569.53;;;-145.06;100.00
59859;BME280;45734;53.648;9.566;2023-05-29T03:04:17;92561.34;;;-145.06;100.00
59859;BME280;45734;53.648;9.566;2023-05-29T03:09:17;92559.31;;;-145.06;100.00
59859;BME280;45734;53.648;9.566;2023-05-29T03:14:17;92299.63;;;-145.06;100.00
59859;BME280;45734;53.648;9.566;2023-05-29T03:19:19;92033.81;;;-145.06;100.00
59859;BME280;45734;53.648;9.566;2023-05-29T03:24:19;91939.75;;;-145.06;100.00
59859;BME280;45734;53.648;9.566;2023-05-29T03:29:20;91866.16;;;-145.06;100.00
59859;BME280;45734;53.648;9.566;2023-05-29T03:34:21;91855.94;;;-145.06;100.00
59859;BME280;45734;53.648;9.566;2023-05-29T03:39:21;91857.97;;;-145.06;100.00
59859;BME280;45734;53.648;9.566;2023-05-29T03:44:21;91702.59;;;-145.06;100.00
59859;BME280;45734;53.648;9.566;2023-05-29T03:49:22;91626.97;;;-145.06;98.32
59859;BME280;45734;53.648;9.566;2023-05-29T03:54:22;91455.25;;;-145.06;94.15
59859;BME280;45734;53.648;9.566;2023-05-29T03:59:22;91256.94;;;-145.06;87.44
59859;BME280;45734;53.648;9.566;2023-05-29T04:04:23;91177.22;;;-145.06;79.01
59859;BME280;45734;53.648;9.566;2023-05-29T04:09:23;91169.06;;;-145.06;76.49
59859;BME280;45734;53.648;9.566;2023-05-29T04:14:23;91030.06;;;-145.06;72.93
59859;BME280;45734;53.648;9.566;2023-05-29T04:19:23;91019.84;;;-145.06;71.54
59859;BME280;45734;53.648;9.566;2023-05-29T04:24:24;90748.00;;;-145.06;68.55
59859;BME280;45734;53.648;9.566;2023-05-29T04:29:24;90745.94;;;-145.06;60.81
59859;BME280;45734;53.648;9.566;2023-05-29T04:34:24;90929.91;;;-145.06;62.43
59859;BME280;45734;53.648;9.566;2023-05-29T04:39:25;90831.78;;;-145.06;62.91
59859;BME280;45734;53.648;9.566;2023-05-29T04:44:25;90889.03;;;-145.06;61.35
59859;BME280;45734;53.648;9.566;2023-05-29T04:49:31;90919.69;;;-145.06;61.11
59859;BME280;45734;53.648;9.566;2023-05-29T04:54:32;90700.97;;;-145.06;59.15
59859;BME280;45734;53.648;9.566;2023-05-29T04:59:34;90586.53;;;-145.06;58.54
59859;BME280;45734;53.648;9.566;2023-05-29T05:04:34;90508.84;;;-145.06;55.12
59859;BME280;45734;53.648;9.566;2023-05-29T05:09:35;90423.00;;;-145.06;52.54
59859;BME280;45734;53.648;9.566;2023-05-29T05:14:35;90312.66;;;-145.06;50.49
59859;BME280;45734;53.648;9.566;2023-05-29T05:19:35;90122.59;;;-145.06;46.90
59859;BME280;45734;53.648;9.566;2023-05-29T05:24:36;90153.25;;;-145.06;46.22
59859;BME280;45734;53.648;9.566;2023-05-29T05:29:36;90128.72;;;-145.06;45.67
59859;BME280;45734;53.648;9.566;2023-05-29T05:34:36;90040.84;;;-145.06;43.44
59859;BME280;45734;53.648;9.566;2023-05-29T05:39:37;90014.28;;;-145.06;44.93
59859;BME280;45734;53.648;9.566;2023-05-29T05:44:37;90077.63;;;-145.06;45.04
59859;BME280;45734;53.648;9.566;2023-05-29T05:49:37;90096.03;;;-145.06;45.30
59859;BME280;45734;53.648;9.566;2023-05-29T05:54:38;90026.56;;;-145.06;44.49
59859;BME280;45734;53.648;9.566;2023-05-29T05:59:38;89971.38;;;-145.06;44.26
59859;BME280;45734;53.648;9.566;2023-05-29T06:04:40;90149.16;;;-145.06;44.93
59859;BME280;45734;53.648;9.566;2023-05-29T06:09:40;89924.38;;;-145.06;44.41
59859;BME280;45734;53.648;9.566;2023-05-29T06:14:41;89952.97;;;-145.06;44.09
59859;BME280;45734;53.648;9.566;2023-05-29T06:19:42;89928.47;;;-145.06;42.55
59859;BME280;45734;53.648;9.566;2023-05-29T06:24:42;89840.59;;;-145.06;42.06
59859;BME280;45734;53.648;9.566;2023-05-29T06:29:43;90230.91;;;-145.06;42.65
59859;BME280;45734;53.648;9.566;2023-05-29T06:34:43;89875.34;;;-145.06;42.17
59859;BME280;45734;53.648;9.566;2023-05-29T06:39:44;90149.16;;;-145.06;42.83
59859;BME280;45734;53.648;9.566;2023-05-29T06:44:45;90059.25;;;-145.06;42.79
59859;BME280;45734;53.648;9.566;2023-05-29T06:49:46;89889.63;;;-145.06;42.44
59859;BME280;45734;53.648;9.566;2023-05-29T06:54:47;89807.91;;;-145.06;41.92
59859;BME280;45734;53.648;9.566;2023-05-29T06:59:47;89781.34;;;-145.06;41.63
59859;BME280;45734;53.648;9.566;2023-05-29T07:04:47;89999.97;;;-145.06;42.49
59859;BME280;45734;53.648;9.566;2023-05-29T07:09:47;89834.47;;;-145.06;42.54
59859;BME280;45734;53.648;9.566;2023-05-29T07:14:48;89807.91;;;-145.06;43.64
59859;BME280;45734;53.648;9.566;2023-05-29T07:19:48;89895.75;;;-145.06;42.97
59859;BME280;45734;53.648;9.566;2023-05-29T07:24:49;90271.78;;;-145.06;43.96
59859;BME280;45734;53.648;9.566;2023-05-29T07:29:50;90016.34;;;-145.06;42.93
59859;BME280;45734;53.648;9.566;2023-05-29T07:34:50;89959.13;;;-145.06;45.22
59859;BME280;45734;53.648;9.566;2023-05-29T07:39:51;89995.91;;;-145.06;44.28
59859;BME280;45734;53.648;9.566;2023-05-29T07:44:52;90014.28;;;-145.06;45.48
59859;BME280;45734;53.648;9.566;2023-05-29T07:49:53;89877.38;;;-145.06;45.21
59859;BME280;45734;53.648;9.566;2023-05-29T07:54:53;89699.59;;;-145.06;42.47
59859;BME280;45734;53.648;9.566;2023-05-29T07:59:53;89748.63;;;-145.06;41.21
59859;BME280;45734;53.648;9.566;2023-05-29T08:04:54;89711.84;;;-145.06;41.72
59859;BME280;45734;53.648;9.566;2023-05-29T08:09:54;89634.22;;;-145.06;40.84
59859;BME280;45734;53.648;9.566;2023-05-29T08:14:54;89566.78;;;-145.06;38.91
59859;BME280;45734;53.648;9.566;2023-05-29T08:19:55;89869.19;;;-145.06;40.30
59859;BME280;45734;53.648;9.566;2023-05-29T08:24:55;89734.34;;;-145.06;40.70
59859;BME280;45734;53.648;9.566;2023-05-29T08:29:55;89744.56;;;-145.06;40.89
59859;BME280;45734;53.648;9.566;2023-05-29T08:34:56;89713.91;;;-145.06;41.28
59859;BME280;45734;53.648;9.566;2023-05-29T08:39:56;89781.34;;;-145.06;40.93
59859;BME280;45734;53.648;9.566;2023-05-29T08:44:58;89752.72;;;-145.06;40.52
59859;BME280;45734;53.648;9.566;2023-05-29T08:50:02;89660.78;;;-145.06;39.67
59859;BME280;45734;53.648;9.566;2023-05-29T08:55:03;89779.28;;;-145.06;38.61
59859;BME280;45734;53.648;9.566;2023-05-29T09:00:04;89858.97;;;-145.06;40.29
59859;BME280;45734;53.648;9.566;2023-05-29T09:05:12;89811.97;;;-145.06;39.69
59859;BME280;45734;53.648;9.566;2023-05-29T09:10:12;89797.69;;;-145.06;41.47
59859;BME280;45734;53.648;9.566;2023-05-29T09:15:21;90030.63;;;-145.06;40.42
59859;BME280;45734;53.648;9.566;2023-05-29T09:20:24;89997.94;;;-145.06;43.46
59859;BME280;45734;53.648;9.566;2023-05-29T09:25:27;90065.38;;;-145.06;41.89
59859;BME280;45734;53.648;9.566;2023-05-29T09:30:32;90153.25;;;-145.06;43.63
59859;BME280;45734;53.648;9.566;2023-05-29T09:35:48;90024.50;;;-145.06;44.36
59859;BME280;45734;53.648;9.566;2023-05-29T09:40:49;89895.75;;;-145.06;43.52
59859;BME280;45734;53.648;9.566;2023-05-29T09:45:50;89887.59;;;-145.06;42.60
59859;BME280;45734;53.648;9.566;2023-05-29T09:50:50;89856.94;;;-145.06;42.16
59859;BME280;45734;53.648;9.566;2023-05-29T09:55:52;90006.13;;;-145.06;41.67
59859;BME280;45734;53.648;9.566;2023-05-29T10:00:53;89955.03;;;-145.06;43.52
59859;BME280;45734;53.648;9.566;2023-05-29T10:05:55;89934.59;;;-145.06;42.13
59859;BME280;45734;53.648;9.566;2023-05-29T10:11:01;89942.75;;;-145.06;42.23
59859;BME280;45734;53.648;9.566;2023-05-29T10:16:03;89926.41;;;-145.06;42.15
59859;BME280;45734;53.648;9.566;2023-05-29T10:21:06;90002.03;;;-145.06;41.59
59859;BME280;45734;53.648;9.566;2023-05-29T10:26:21;89957.06;;;-145.06;42.56
59859;BME280;45734;53.648;9.566;2023-05-29T10:31:52;89952.97;;;-145.06;42.76
59859;BME280;45734;53.648;9.566;2023-05-29T10:36:55;90051.06;;;-145.06;42.26
59859;BME280;45734;53.648;9.566;2023-05-29T10:41:56;90059.25;;;-145.06;41.21
59859;BME280;45734;53.648;9.566;2023-05-29T10:51:58;90089.91;;;-145.06;42.40
59859;BME280;45734;53.648;9.566;2023-05-29T10:57:02;90096.03;;;-145.06;41.33
59859;BME280;45734;53.648;9.566;2023-05-29T11:02:04;90118.50;;;-145.06;40.97
59859;BME280;45734;53.648;9.566;2023-05-29T11:07:05;90147.13;;;-145.06;42.34
59859;BME280;45734;53.648;9.566;2023-05-29T11:12:25;90210.47;;;-145.06;43.34
59859;BME280;45734;53.648;9.566;2023-05-29T11:17:43;90232.94;;;-145.06;41.48
59859;BME280;45734;53.648;9.566;2023-05-29T11:23:02;90192.06;;;-145.06;41.21
59859;BME280;45734;53.648;9.566;2023-05-29T11:28:04;90196.16;;;-145.06;41.67
59859;BME280;45734;53.648;9.566;2023-05-29T11:33:12;90153.25;;;-145.06;40.32
59859;BME280;45734;53.648;9.566;2023-05-29T11:38:19;90206.38;;;-145.06;41.08
59859;BME280;45734;53.648;9.566;2023-05-29T11:43:19;90194.13;;;-145.06;42.25
59859;BME280;45734;53.648;9.566;2023-05-29T11:48:20;90136.91;;;-145.06;39.71
59859;BME280;45734;53.648;9.566;2023-05-29T11:53:21;90141.00;;;-145.06;39.63
59859;BME280;45734;53.648;9.566;2023-05-29T11:58:22;90243.16;;;-145.06;41.81
59859;BME280;45734;53.648;9.566;2023-05-29T12:03:22;90263.59;;;-145.06;41.52
59859;BME280;45734;53.648;9.566;2023-05-29T12:08:23;90265.66;;;-145.06;42.91
59859;BME280;45734;53.648;9.566;2023-05-29T12:13:24;90218.66;;;-145.06;41.87
59859;BME280;45734;53.648;9.566;2023-05-29T12:18:25;90216.59;;;-145.06;42.29
59859;BME280;45734;53.648;9.566;2023-05-29T12:23:27;90136.91;;;-145.06;40.68
59859;BME280;45734;53.648;9.566;2023-05-29T12:28:28;90183.91;;;-145.06;39.56
59859;BME280;45734;53.648;9.566;2023-05-29T12:33:30;90241.13;;;-145.06;41.55
59859;BME280;45734;53.648;9.566;2023-05-29T12:38:31;90239.09;;;-145.06;41.37
59859;BME280;45734;53.648;9.566;2023-05-29T12:43:31;90188.00;;;-145.06;40.08
59859;BME280;45734;53.648;9.566;2023-05-29T12:48:31;90175.72;;;-145.06;38.63
59859;BME280;45734;53.648;9.566;2023-05-29T12:53:32;90308.56;;;-145.06;40.75
59859;BME280;45734;53.648;9.566;2023-05-29T12:58:32;90279.97;;;-145.06;41.87
59859;BME280;45734;53.648;9.566;2023-05-29T13:03:32;90218.66;;;-145.06;40.71
59859;BME280;45734;53.648;9.566;2023-05-29T13:08:33;90220.69;;;-145.06;39.00
59859;BME280;45734;53.648;9.566;2023-05-29T13:13:34;90267.69;;;-145.06;40.04
59859;BME280;45734;53.648;9.566;2023-05-29T13:18:34;90263.59;;;-145.06;40.80
59859;BME280;45734;53.648;9.566;2023-05-29T13:23:34;90282.00;;;-145.06;39.67
59859;BME280;45734;53.648;9.566;2023-05-29T13:28:35;90237.03;;;-145.06;38.77
59859;BME280;45734;53.648;9.566;2023-05-29T13:33:35;90284.03;;;-145.06;39.84
59859;BME280;45734;53.648;9.566;2023-05-29T13:38:35;90269.75;;;-145.06;38.31
59859;BME280;45734;53.648;9.566;2023-05-29T13:43:35;90237.03;;;-145.06;37.06
59859;BME280;45734;53.648;9.566;2023-05-29T13:48:36;90269.75;;;-145.06;38.08
59859;BME280;45734;53.648;9.566;2023-05-29T13:53:36;90232.94;;;-145.06;38.34
59859;BME280;45734;53.648;9.566;2023-05-29T13:58:36;90235.00;;;-145.06;37.96
59859;BME280;45734;53.648;9.566;2023-05-29T14:03:38;90259.53;;;-145.06;37.87
59859;BME280;45734;53.648;9.566;2023-05-29T14:08:38;90271.78;;;-145.06;38.70
59859;BME280;45734;53.648;9.566;2023-05-29T14:13:38;90273.81;;;-145.06;37.78
59859;BME280;45734;53.648;9.566;2023-05-29T14:18:39;90263.59;;;-145.06;36.86
59859;BME280;45734;53.648;9.566;2023-05-29T14:23:39;90292.22;;;-145.06;37.92
59859;BME280;45734;53.648;9.566;2023-05-29T14:28:39;90269.75;;;-145.06;37.14
59859;BME280;45734;53.648;9.566;2023-05-29T14:33:41;90251.34;;;-145.06;36.92
59859;BME280;45734;53.648;9.566;2023-05-29T14:38:41;90253.38;;;-145.06;35.68
59859;BME280;45734;53.648;9.566;2023-05-29T14:43:43;90294.25;;;-145.06;37.79
59859;BME280;45734;53.648;9.566;2023-05-29T14:48:43;90153.25;;;-145.06;35.19
59859;BME280;45734;53.648;9.566;2023-05-29T14:53:44;90216.59;;;-145.06;36.71
59859;BME280;45734;53.648;9.566;2023-05-29T14:58:45;90228.88;;;-145.06;36.89
59859;BME280;45734;53.648;9.566;2023-05-29T15:03:46;90214.56;;;-145.06;37.01
59859;BME280;45734;53.648;9.566;2023-05-29T15:08:48;90179.81;;;-145.06;35.40
59859;BME280;45734;53.648;9.566;2023-05-29T15:13:48;90173.69;;;-145.06;36.56
59859;BME280;45734;53.648;9.566;2023-05-29T15:18:48;90206.38;;;-145.06;37.76
59859;BME280;45734;53.648;9.566;2023-05-29T15:23:48;90324.91;;;-145.06;39.89
59859;BME280;45734;53.648;9.566;2023-05-29T15:28:49;90339.22;;;-145.06;40.37
59859;BME280;45734;53.648;9.566;2023-05-29T15:33:49;90322.88;;;-145.06;39.78
59859;BME280;45734;53.648;9.566;2023-05-29T15:38:49;90333.09;;;-145.06;39.35
59859;BME280;45734;53.648;9.566;2023-05-29T15:43:50;90386.22;;;-145.06;40.62
59859;BME280;45734;53.648;9.566;2023-05-29T15:48:50;90451.63;;;-145.06;42.00
59859;BME280;45734;53.648;9.566;2023-05-29T15:53:51;90439.38;;;-145.06;42.11
59859;BME280;45734;53.648;9.566;2023-05-29T15:58:51;90445.50;;;-145.06;41.81
59859;BME280;45734;53.648;9.566;2023-05-29T16:03:51;90476.16;;;-145.06;43.04
59859;BME280;45734;53.648;9.566;2023-05-29T16:08:51;90521.13;;;-145.06;42.07
59859;BME280;45734;53.648;9.566;2023-05-29T16:13:52;90529.28;;;-145.06;41.95
59859;BME280;45734;53.648;9.566;2023-05-29T16:18:52;90535.44;;;-145.06;41.50
59859;BME280;45734;53.648;9.566;2023-05-29T16:23:52;90625.34;;;-145.06;41.58
59859;BME280;45734;53.648;9.566;2023-05-29T16:28:59;90621.25;;;-145.06;42.01
59859;BME280;45734;53.648;9.566;2023-05-29T16:34:00;90653.97;;;-145.06;42.58
59859;BME280;45734;53.648;9.566;2023-05-29T16:39:00;90688.72;;;-145.06;42.45
59859;BME280;45734;53.648;9.566;2023-05-29T16:44:01;90703.03;;;-145.06;41.75
59859;BME280;45734;53.648;9.566;2023-05-29T16:49:01;90752.06;;;-145.06;41.91
59859;BME280;45734;53.648;9.566;2023-05-29T16:54:01;90748.00;;;-145.06;42.86
59859;BME280;45734;53.648;9.566;2023-05-29T16:59:02;90713.25;;;-145.06;41.81
59859;BME280;45734;53.648;9.566;2023-05-29T17:04:02;90692.81;;;-145.06;41.18
59859;BME280;45734;53.648;9.566;2023-05-29T17:09:04;90766.38;;;-145.06;41.94
59859;BME280;45734;53.648;9.566;2023-05-29T17:14:04;90776.59;;;-145.06;42.87
59859;BME280;45734;53.648;9.566;2023-05-29T17:19:04;90758.22;;;-145.06;42.24
59859;BME280;45734;53.648;9.566;2023-05-29T17:24:05;90809.31;;;-145.06;41.95
59859;BME280;45734;53.648;9.566;2023-05-29T17:29:06;90807.25;;;-145.06;41.39
59859;BME280;45734;53.648;9.566;2023-05-29T17:34:06;90878.81;;;-145.06;43.36
59859;BME280;45734;53.648;9.566;2023-05-29T17:39:07;90856.31;;;-145.06;43.23
59859;BME280;45734;53.648;9.566;2023-05-29T17:44:08;90915.59;;;-145.06;43.78
59859;BME280;45734;53.648;9.566;2023-05-29T17:49:08;90970.78;;;-145.06;43.77
59859;BME280;45734;53.648;9.566;2023-05-29T17:54:09;90991.22;;;-145.06;45.74
59859;BME280;45734;53.648;9.566;2023-05-29T17:59:12;91032.09;;;-145.06;47.97
59859;BME280;45734;53.648;9.566;2023-05-29T18:04:12;91171.09;;;-145.06;50.44
59859;BME280;45734;53.648;9.566;2023-05-29T18:09:13;91224.25;;;-145.06;51.73
59859;BME280;45734;53.648;9.566;2023-05-29T18:14:13;91254.91;;;-145.06;53.21
59859;BME280;45734;53.648;9.566;2023-05-29T18:19:15;91355.06;;;-145.06;54.22
59859;BME280;45734;53.648;9.566;2023-05-29T18:24:15;91383.69;;;-145.06;56.17
59859;BME280;45734;53.648;9.566;2023-05-29T18:29:15;91504.31;;;-145.06;61.28
59859;BME280;45734;53.648;9.566;2023-05-29T18:34:16;91598.34;;;-145.06;65.19
59859;BME280;45734;53.648;9.566;2023-05-29T18:39:16;91657.63;;;-145.06;68.54
59859;BME280;45734;53.648;9.566;2023-05-29T18:44:16;91663.75;;;-145.06;70.79
59859;BME280;45734;53.648;9.566;2023-05-29T18:49:16;91733.28;;;-145.06;72.48
59859;BME280;45734;53.648;9.566;2023-05-29T18:54:17;91768.03;;;-145.06;75.45
59859;BME280;45734;53.648;9.566;2023-05-29T18:59:17;91810.97;;;-145.06;77.49
59859;BME280;45734;53.648;9.566;2023-05-29T19:04:17;91847.75;;;-145.06;79.11
59859;BME280;45734;53.648;9.566;2023-05-29T19:09:18;91909.09;;;-145.06;84.15
59859;BME280;45734;53.648;9.566;2023-05-29T19:14:18;91954.06;;;-145.06;87.47
59859;BME280;45734;53.648;9.566;2023-05-29T19:19:19;91923.41;;;-145.06;92.18
59859;BME280;45734;53.648;9.566;2023-05-29T19:24:19;92039.94;;;-145.06;94.89
59859;BME280;45734;53.648;9.566;2023-05-29T19:29:20;92003.16;;;-145.06;94.69
59859;BME280;45734;53.648;9.566;2023-05-29T19:34:20;92062.44;;;-145.06;97.97
59859;BME280;45734;53.648;9.566;2023-05-29T19:39:22;92080.84;;;-145.06;98.36
59859;BME280;45734;53.648;9.566;2023-05-29T19:44:23;92089.03;;;-145.06;100.00
59859;BME280;45734;53.648;9.566;2023-05-29T19:49:23;92103.31;;;-145.06;100.00
59859;BME280;45734;53.648;9.566;2023-05-29T19:54:24;92119.69;;;-145.06;100.00
59859;BME280;45734;53.648;9.566;2023-05-29T19:59:25;92144.22;;;-145.06;100.00
59859;BME280;45734;53.648;9.566;2023-05-29T20:04:29;92134.00;;;-145.06;100.00
59859;BME280;45734;53.648;9.566;2023-05-29T20:09:30;92162.63;;;-145.06;100.00
59859;BME280;45734;53.648;9.566;2023-05-29T20:14:30;92158.53;;;-145.06;100.00
59859;BME280;45734;53.648;9.566;2023-05-29T20:19:31;92187.16;;;-145.06;100.00
59859;BME280;45734;53.648;9.566;2023-05-29T20:24:31;92193.28;;;-145.06;100.00
59859;BME280;45734;53.648;9.566;2023-05-29T20:29:32;92150.34;;;-145.06;100.00
59859;BME280;45734;53.648;9.566;2023-05-29T20:34:32;92191.25;;;-145.06;100.00
59859;BME280;45734;53.648;9.566;2023-05-29T20:39:33;92207.59;;;-145.06;100.00
59859;BME280;45734;53.648;9.566;2023-05-29T20:44:34;92240.31;;;-145.06;100.00
59859;BME280;45734;53.648;9.566;2023-05-29T20:49:35;92240.31;;;-145.06;100.00
59859;BME280;45734;53.648;9.566;2023-05-29T20:54:35;92217.81;;;-145.06;100.00
59859;BME280;45734;53.648;9.566;2023-05-29T20:59:35;92189.19;;;-145.06;100.00
59859;BME280;45734;53.648;9.566;2023-05-29T21:04:36;92230.09;;;-145.06;100.00
59859;BME280;45734;53.648;9.566;2023-05-29T21:09:36;92226.00;;;-145.06;100.00
59859;BME280;45734;53.648;9.566;2023-05-29T21:14:38;92217.81;;;-145.06;100.00
59859;BME280;45734;53.648;9.566;2023-05-29T21:19:38;92260.75;;;-145.06;100.00
59859;BME280;45734;53.648;9.566;2023-05-29T21:24:39;92242.38;;;-145.06;100.00
59859;BME280;45734;53.648;9.566;2023-05-29T21:29:39;92254.63;;;-145.06;100.00
59859;BME280;45734;53.648;9.566;2023-05-29T21:34:39;92287.34;;;-145.06;100.00
59859;BME280;45734;53.648;9.566;2023-05-29T21:39:40;92262.81;;;-145.06;100.00
59859;BME280;45734;53.648;9.566;2023-05-29T21:44:42;92277.13;;;-145.06;100.00
59859;BME280;45734;53.648;9.566;2023-05-29T21:49:43;92301.66;;;-145.06;100.00
59859;BME280;45734;53.648;9.566;2023-05-29T21:54:45;92285.31;;;-145.06;100.00
59859;BME280;45734;53.648;9.566;2023-05-29T21:59:45;92311.88;;;-145.06;100.00
59859;BME280;45734;53.648;9.566;2023-05-29T22:04:46;92283.25;;;-145.06;100.00
59859;BME280;45734;53.648;9.566;2023-05-29T22:09:46;92291.44;;;-145.06;100.00
59859;BME280;45734;53.648;9.566;2023-05-29T22:14:46;92297.56;;;-145.06;100.00
59859;BME280;45734;53.648;9.566;2023-05-29T22:19:47;92326.19;;;-145.06;100.00
59859;BME280;45734;53.648;9.566;2023-05-29T22:24:47;92299.63;;;-145.06;100.00
59859;BME280;45734;53.648;9.566;2023-05-29T22:29:48;92285.31;;;-145.06;100.00
59859;BME280;45734;53.648;9.566;2023-05-29T22:34:49;92236.22;;;-145.06;100.00
59859;BME280;45734;53.648;9.566;2023-05-29T22:39:50;92293.47;;;-145.06;100.00
59859;BME280;45734;53.648;9.566;2023-05-29T22:44:50;92305.75;;;-145.06;100.00
59859;BME280;45734;53.648;9.566;2023-05-29T22:49:50;92311.88;;;-145.06;100.00
59859;BME280;45734;53.648;9.566;2023-05-29T22:54:51;92311.88;;;-145.06;100.00
59859;BME280;45734;53.648;9.566;2023-05-29T22:59:51;92287.34;;;-145.06;100.00
59859;BME280;45734;53.648;9.566;2023-05-29T23:04:52;92295.53;;;-145.06;100.00
59859;BME280;45734;53.648;9.566;2023-05-29T23:09:53;92299.63;;;-145.06;100.00
59859;BME280;45734;53.648;9.566;2023-05-29T23:14:53;92281.22;;;-145.06;100.00
59859;BME280;45734;53.648;9.566;2023-05-29T23:19:53;92301.66;;;-145.06;100.00
59859;BME280;45734;53.648;9.566;2023-05-29T23:24:53;92297.56;;;-145.06;100.00
59859;BME280;45734;53.648;9.566;2023-05-29T23:29:54;92332.31;;;-145.06;100.00
59859;BME280;45734;53.648;9.566;2023-05-29T23:34:55;92352.78;;;-145.06;100.00
59859;BME280;45734;53.648;9.566;2023-05-29T23:39:56;92336.41;;;-145.06;100.00
59859;BME280;45734;53.648;9.566;2023-05-29T23:44:56;92360.97;;;-145.06;100.00
59859;BME280;45734;53.648;9.566;2023-05-29T23:49:56;92334.38;;;-145.06;100.00
59859;BME280;45734;53.648;9.566;2023-05-29T23:54:58;92363.00;;;-145.06;100.00
59859;BME280;45734;53.648;9.566;2023-05-29T23:59:58;92348.69;;;-145.06;100.00
